createdAt,value
2018-07-17T00:01:18.336Z,1.00
2018-07-17T00:03:47.502Z,1.07
2018-07-17T00:06:16.588Z,1.80
2018-07-17T00:08:45.876Z,1.27
2018-07-17T00:11:14.988Z,1.37
2018-07-17T00:13:44.241Z,1.17
2018-07-17T00:16:13.538Z,1.67
2018-07-17T00:18:42.678Z,1.00
2018-07-17T00:21:11.797Z,1.37
2018-07-17T00:23:40.868Z,1.20
2018-07-17T00:26:09.964Z,0.97
2018-07-17T00:28:39.049Z,0.80
2018-07-17T00:31:08.234Z,1.00
2018-07-17T00:33:37.380Z,1.00
2018-07-17T00:36:06.552Z,1.10
2018-07-17T00:38:35.646Z,1.10
2018-07-17T00:41:04.728Z,0.90
2018-07-17T00:43:33.806Z,0.80
2018-07-17T00:46:02.894Z,1.00
2018-07-17T00:48:32.054Z,1.33
2018-07-17T00:51:01.094Z,1.07
2018-07-17T00:53:30.215Z,0.90
2018-07-17T00:55:59.326Z,0.73
2018-07-17T00:58:28.428Z,1.20
2018-07-17T01:00:57.783Z,1.17
2018-07-17T01:03:32.360Z,1.40
2018-07-17T01:06:07.880Z,1.00
2018-07-17T01:08:42.339Z,1.00
2018-07-17T01:11:16.736Z,0.93
2018-07-17T01:13:50.698Z,0.90
2018-07-17T01:16:19.845Z,1.40
2018-07-17T01:18:48.977Z,0.73
2018-07-17T01:21:18.124Z,1.17
2018-07-17T01:23:47.204Z,1.50
2018-07-17T01:26:16.306Z,1.00
2018-07-17T01:28:45.422Z,1.20
2018-07-17T01:31:14.506Z,0.90
2018-07-17T01:33:43.606Z,0.90
2018-07-17T01:36:12.696Z,0.80
2018-07-17T01:38:41.969Z,1.00
2018-07-17T01:41:11.026Z,0.70
2018-07-17T01:43:40.239Z,1.10
2018-07-17T01:46:09.318Z,0.80
2018-07-17T01:48:38.496Z,1.37
2018-07-17T01:51:07.581Z,0.90
2018-07-17T01:53:36.652Z,0.90
2018-07-17T01:56:06.095Z,0.60
2018-07-17T01:58:35.172Z,1.07
2018-07-17T02:01:04.272Z,1.10
2018-07-17T02:03:33.336Z,1.00
2018-07-17T02:06:02.487Z,0.90
2018-07-17T02:08:32.130Z,0.97
2018-07-17T02:11:01.210Z,1.07
2018-07-17T02:13:30.281Z,1.17
2018-07-17T02:15:59.344Z,1.23
2018-07-17T02:18:28.420Z,1.03
2018-07-17T02:20:57.546Z,0.80
2018-07-17T02:23:26.622Z,1.10
2018-07-17T02:25:55.745Z,0.70
2018-07-17T02:28:24.844Z,2.60
2018-07-17T02:30:54.060Z,1.43
2018-07-17T02:33:23.148Z,1.37
2018-07-17T02:35:52.221Z,0.80
2018-07-17T02:38:21.318Z,1.80
2018-07-17T02:40:50.426Z,1.93
2018-07-17T02:43:19.496Z,1.53
2018-07-17T02:45:48.620Z,2.10
2018-07-17T02:48:17.708Z,4.53
2018-07-17T02:50:46.840Z,5.37
2018-07-17T02:53:15.996Z,10.00
2018-07-17T02:55:45.099Z,9.77
2018-07-17T02:58:14.219Z,11.97
2018-07-17T03:00:43.391Z,15.67
2018-07-17T03:03:12.510Z,22.50
2018-07-17T03:05:41.694Z,17.10
2018-07-17T03:08:10.785Z,19.23
2018-07-17T03:10:39.895Z,20.63
2018-07-17T03:13:08.984Z,17.30
2018-07-17T03:15:38.279Z,26.67
2018-07-17T03:18:07.490Z,24.77
2018-07-17T03:20:36.604Z,24.40
2018-07-17T03:23:05.780Z,22.80
2018-07-17T03:25:34.996Z,15.97
2018-07-17T03:28:04.180Z,19.13
2018-07-17T03:30:33.271Z,22.23
2018-07-17T03:33:02.386Z,16.87
2018-07-17T03:35:31.480Z,20.07
2018-07-17T03:38:00.680Z,17.93
2018-07-17T03:40:29.855Z,11.10
2018-07-17T03:42:58.971Z,13.27
2018-07-17T03:45:28.074Z,12.03
2018-07-17T03:47:57.243Z,16.27
2018-07-17T03:50:26.370Z,12.73
2018-07-17T03:52:55.528Z,12.47
2018-07-17T03:55:24.691Z,11.70
2018-07-17T03:57:53.831Z,12.37
2018-07-17T04:00:22.925Z,9.33
2018-07-17T04:02:52.103Z,9.50
2018-07-17T04:05:21.424Z,10.43
2018-07-17T04:07:50.517Z,8.63
2018-07-17T04:10:19.613Z,10.57
2018-07-17T04:12:48.811Z,7.90
2018-07-17T04:15:17.896Z,11.43
2018-07-17T04:17:46.995Z,10.67
2018-07-17T04:20:16.538Z,6.70
2018-07-17T04:22:45.708Z,7.50
2018-07-17T04:25:14.916Z,8.10
2018-07-17T04:27:44.102Z,5.67
2018-07-17T04:30:13.220Z,7.83
2018-07-17T04:32:42.350Z,9.03
2018-07-17T04:35:12.140Z,7.40
2018-07-17T04:37:41.330Z,6.17
2018-07-17T04:40:10.418Z,5.47
2018-07-17T04:42:39.501Z,6.80
2018-07-17T04:45:08.584Z,7.03
2018-07-17T04:47:37.699Z,6.17
2018-07-17T04:50:06.843Z,4.57
2018-07-17T04:52:36.000Z,5.53
2018-07-17T04:55:05.282Z,5.90
2018-07-17T04:57:34.472Z,5.50
2018-07-17T05:00:03.695Z,2.90
2018-07-17T05:02:32.900Z,4.33
2018-07-17T05:05:02.064Z,4.03
2018-07-17T05:07:32.266Z,4.60
2018-07-17T05:10:01.561Z,3.07
2018-07-17T05:12:30.674Z,5.17
2018-07-17T05:14:59.801Z,3.63
2018-07-17T05:17:28.901Z,5.27
2018-07-17T05:19:57.970Z,4.67
2018-07-17T05:22:27.224Z,2.57
2018-07-17T05:24:56.307Z,4.13
2018-07-17T05:27:25.521Z,4.07
2018-07-17T05:29:54.668Z,3.27
2018-07-17T05:32:23.779Z,4.37
2018-07-17T05:34:52.881Z,4.10
2018-07-17T05:37:22.072Z,2.40
2018-07-17T05:39:51.388Z,2.53
2018-07-17T05:42:20.480Z,4.73
2018-07-17T05:44:49.616Z,3.07
2018-07-17T05:47:18.868Z,1.67
2018-07-17T05:49:48.048Z,2.63
2018-07-17T05:52:17.160Z,1.77
2018-07-17T05:54:46.249Z,4.43
2018-07-17T05:57:15.310Z,4.77
2018-07-17T05:59:44.385Z,2.90
2018-07-17T06:02:13.603Z,4.30
2018-07-17T06:04:42.735Z,1.50
2018-07-17T06:07:11.818Z,2.10
2018-07-17T06:09:40.899Z,1.87
2018-07-17T06:12:10.137Z,2.23
2018-07-17T06:14:39.217Z,2.07
2018-07-17T06:17:08.296Z,1.53
2018-07-17T06:19:37.356Z,2.33
2018-07-17T06:22:06.606Z,2.57
2018-07-17T06:24:35.896Z,1.47
2018-07-17T06:27:05.256Z,2.00
2018-07-17T06:29:34.697Z,3.13
2018-07-17T06:32:03.778Z,4.37
2018-07-17T06:34:32.920Z,2.60
2018-07-17T06:37:01.986Z,1.93
2018-07-17T06:39:31.078Z,3.17
2018-07-17T06:42:00.176Z,2.57
2018-07-17T06:44:29.293Z,1.70
2018-07-17T06:46:58.556Z,2.23
2018-07-17T06:49:27.644Z,2.50
2018-07-17T06:51:56.718Z,0.90
2018-07-17T06:54:25.787Z,1.10
2018-07-17T06:56:54.873Z,2.00
2018-07-17T06:59:23.987Z,1.47
2018-07-17T07:01:53.139Z,1.40
2018-07-17T07:04:22.231Z,1.97
2018-07-17T07:06:51.319Z,1.17
2018-07-17T07:09:20.435Z,1.87
2018-07-17T07:11:49.529Z,3.77
2018-07-17T07:14:18.624Z,2.57
2018-07-17T07:16:47.728Z,1.53
2018-07-17T07:19:16.797Z,1.10
2018-07-17T07:21:45.902Z,1.00
2018-07-17T07:24:15.671Z,2.00
2018-07-17T07:26:44.755Z,1.00
2018-07-17T07:29:14.367Z,1.13
2018-07-17T07:31:43.507Z,1.20
2018-07-17T07:34:12.591Z,0.80
2018-07-17T07:36:41.735Z,1.57
2018-07-17T07:39:11.288Z,1.63
2018-07-17T07:41:40.411Z,1.27
2018-07-17T07:44:09.519Z,1.40
2018-07-17T07:46:38.749Z,1.43
2018-07-17T07:49:07.948Z,1.90
2018-07-17T07:51:37.213Z,1.40
2018-07-17T07:54:06.544Z,2.53
2018-07-17T09:09:42.684Z,4.90
2018-07-17T09:12:11.921Z,4.33
2018-07-17T09:14:41.037Z,2.90
2018-07-17T09:17:10.124Z,4.93
2018-07-17T09:19:39.394Z,3.90
2018-07-17T09:22:08.521Z,5.37
2018-07-17T09:24:43.004Z,4.37
2018-07-17T09:27:12.225Z,3.80
2018-07-17T09:29:41.409Z,4.37
2018-07-17T09:32:11.272Z,7.73
2018-07-17T09:34:40.415Z,6.90
2018-07-17T09:37:09.642Z,4.77
2018-07-17T09:39:38.689Z,6.77
2018-07-17T09:42:07.819Z,4.67
2018-07-17T09:44:37.012Z,12.07
2018-07-17T09:47:06.717Z,4.33
2018-07-17T09:49:35.812Z,4.80
2018-07-17T09:52:04.902Z,5.87
2018-07-17T09:54:35.722Z,2.80
2018-07-17T09:57:04.827Z,7.73
2018-07-17T09:59:33.895Z,4.90
2018-07-17T10:02:37.876Z,4.93
2018-07-17T10:05:07.032Z,4.77
2018-07-17T10:07:36.147Z,7.10
2018-07-17T10:10:05.234Z,5.63
2018-07-17T10:12:34.312Z,5.13
2018-07-17T10:15:03.401Z,3.67
2018-07-17T10:17:32.567Z,5.10
2018-07-17T10:20:01.737Z,6.47
2018-07-17T10:22:30.966Z,7.60
2018-07-17T10:25:00.336Z,5.40
2018-07-17T10:27:29.491Z,4.43
2018-07-17T10:29:58.616Z,3.40
2018-07-17T10:32:27.729Z,8.57
2018-07-17T10:34:57.030Z,5.77
2018-07-17T10:37:26.066Z,7.40
2018-07-17T10:39:55.208Z,9.43
2018-07-17T10:42:24.398Z,6.97
2018-07-17T10:44:53.561Z,8.00
2018-07-17T10:47:22.717Z,7.20
2018-07-17T10:49:51.942Z,8.63
2018-07-17T10:52:21.103Z,10.20
2018-07-17T10:54:50.316Z,4.20
2018-07-17T10:57:19.508Z,4.70
2018-07-17T10:59:48.654Z,5.23
2018-07-17T11:02:17.775Z,5.27
2018-07-17T11:04:46.875Z,7.70
2018-07-17T11:07:16.092Z,8.30
2018-07-17T11:09:45.275Z,6.07
2018-07-17T11:12:14.384Z,5.67
2018-07-17T11:14:43.468Z,10.07
2018-07-17T11:17:12.678Z,4.63
2018-07-17T11:19:41.774Z,6.57
2018-07-17T11:22:10.820Z,7.50
2018-07-17T11:24:39.943Z,7.80
2018-07-17T11:27:09.148Z,3.93
2018-07-17T11:29:38.260Z,6.00
2018-07-17T11:32:07.331Z,8.53
2018-07-17T11:34:36.399Z,6.10
2018-07-17T11:37:05.736Z,2.20
2018-07-17T11:39:34.844Z,8.00
2018-07-17T11:42:03.942Z,7.57
2018-07-17T11:44:33.028Z,7.30
2018-07-17T11:47:02.121Z,4.30
2018-07-17T11:49:31.205Z,5.13
2018-07-17T11:52:00.307Z,5.33
2018-07-17T11:54:29.411Z,5.27
2018-07-17T11:56:58.520Z,5.17
2018-07-17T11:59:27.641Z,5.63
2018-07-17T12:01:56.902Z,3.97
2018-07-17T12:04:26.004Z,5.43
2018-07-17T12:06:55.496Z,7.53
2018-07-17T12:09:24.591Z,7.63
2018-07-17T12:11:53.703Z,5.07
2018-07-17T12:14:22.880Z,7.37
2018-07-17T12:16:52.003Z,6.20
2018-07-17T12:19:21.182Z,6.77
2018-07-17T12:21:50.279Z,7.57
2018-07-17T12:24:19.370Z,6.20
2018-07-17T12:26:48.493Z,7.87
2018-07-17T12:29:17.569Z,5.23
2018-07-17T12:31:46.841Z,7.90
2018-07-17T12:34:16.149Z,7.97
2018-07-17T12:36:45.215Z,5.87
2018-07-17T12:39:14.340Z,5.10
2018-07-17T12:41:43.448Z,6.87
2018-07-17T12:44:12.551Z,5.80
2018-07-17T12:46:41.805Z,6.63
2018-07-17T12:49:10.960Z,8.00
2018-07-17T12:51:40.341Z,7.03
2018-07-17T12:54:09.431Z,8.77
2018-07-17T12:56:38.520Z,4.07
2018-07-17T12:59:07.627Z,4.83
2018-07-17T13:01:36.716Z,4.10
2018-07-17T13:04:06.013Z,7.03
2018-07-17T13:06:35.076Z,4.20
2018-07-17T13:09:05.746Z,3.57
2018-07-17T13:11:34.843Z,2.50
2018-07-17T13:14:03.967Z,3.93
2018-07-17T13:16:33.345Z,5.43
2018-07-17T13:19:02.436Z,6.10
2018-07-17T13:21:31.555Z,4.20
2018-07-17T13:24:00.636Z,4.37
2018-07-17T13:26:29.703Z,3.30
2018-07-17T13:28:58.818Z,3.77
2018-07-17T13:31:27.921Z,3.00
2018-07-17T13:33:57.008Z,6.77
2018-07-17T13:36:26.147Z,4.93
2018-07-17T13:38:55.224Z,6.67
2018-07-17T13:41:24.444Z,2.97
2018-07-17T13:43:53.506Z,4.57
2018-07-17T13:46:22.632Z,2.80
2018-07-17T13:48:51.739Z,9.27
2018-07-17T13:51:20.836Z,5.63
2018-07-17T13:53:49.992Z,5.37
2018-07-17T13:56:19.160Z,3.00
2018-07-17T13:58:48.376Z,3.83
2018-07-17T14:01:17.440Z,4.40
2018-07-17T14:03:46.573Z,2.47
2018-07-17T14:06:15.644Z,2.77
2018-07-17T14:08:44.747Z,8.77
2018-07-17T14:11:13.847Z,3.77
2018-07-17T14:13:42.935Z,2.93
2018-07-17T14:16:12.059Z,3.50
2018-07-17T14:18:41.153Z,4.13
2018-07-17T14:21:10.255Z,3.80
2018-07-17T14:23:39.367Z,3.70
2018-07-17T14:26:08.865Z,2.30
2018-07-17T14:28:37.944Z,3.13
2018-07-17T14:31:07.307Z,1.63
2018-07-17T14:33:37.111Z,3.93
2018-07-17T14:36:06.919Z,3.30
2018-07-17T14:38:36.124Z,2.53
2018-07-17T14:41:05.277Z,3.97
2018-07-17T14:43:34.380Z,1.73
2018-07-17T14:46:03.465Z,29.67
2018-07-17T14:48:33.833Z,5.57
2018-07-17T14:51:02.995Z,8.43
2018-07-17T14:53:32.103Z,2.70
2018-07-17T14:56:01.289Z,4.57
2018-07-17T14:58:30.371Z,4.07
2018-07-17T15:00:59.477Z,4.70
2018-07-17T15:03:28.557Z,4.27
2018-07-17T15:05:57.762Z,5.10
2018-07-17T15:08:27.119Z,2.30
2018-07-17T15:10:56.255Z,3.53
2018-07-17T15:13:25.335Z,4.80
2018-07-17T15:15:54.460Z,5.33
2018-07-17T15:18:23.719Z,3.57
2018-07-17T15:20:52.863Z,4.83
2018-07-17T15:23:21.935Z,5.73
2018-07-17T15:25:51.043Z,3.00
2018-07-17T15:28:20.170Z,5.40
2018-07-17T15:30:49.351Z,6.20
2018-07-17T15:33:18.975Z,5.35
2018-07-17T15:35:48.156Z,8.40
2018-07-17T15:38:17.257Z,5.35
2018-07-17T15:40:46.854Z,5.22
2018-07-17T15:43:15.940Z,3.37
2018-07-17T15:45:45.077Z,4.90
2018-07-17T15:48:14.336Z,5.53
2018-07-17T15:50:43.540Z,6.67
2018-07-17T15:53:18.198Z,6.87
2018-07-17T15:55:47.336Z,4.90
2018-07-17T15:58:16.484Z,7.30
2018-07-17T16:00:45.584Z,10.43
2018-07-17T16:03:14.737Z,3.20
2018-07-17T16:05:43.867Z,5.33
2018-07-17T16:08:13.136Z,5.47
2018-07-17T16:10:42.249Z,4.77
2018-07-17T16:13:11.366Z,7.00
2018-07-17T16:15:40.444Z,5.63
2018-07-17T16:18:09.615Z,3.27
2018-07-17T16:20:38.726Z,5.57
2018-07-17T16:23:07.803Z,5.30
2018-07-17T16:25:36.934Z,3.63
2018-07-17T16:28:06.196Z,18.53
2018-07-17T16:30:35.281Z,7.43
2018-07-17T16:33:04.624Z,4.60
2018-07-17T16:35:33.684Z,7.33
2018-07-17T16:38:02.807Z,5.77
2018-07-17T16:40:32.061Z,6.77
2018-07-17T16:43:01.216Z,4.80
2018-07-17T16:45:30.404Z,6.80
2018-07-17T16:47:59.507Z,5.07
2018-07-17T16:50:28.787Z,6.57
2018-07-17T16:52:57.868Z,3.77
2018-07-17T16:55:27.138Z,3.43
2018-07-17T16:57:56.223Z,4.63
2018-07-17T17:00:25.392Z,4.00
2018-07-17T17:02:54.483Z,3.57
2018-07-17T17:05:23.684Z,4.17
2018-07-17T17:07:52.988Z,3.07
2018-07-17T17:10:22.034Z,4.17
2018-07-17T17:12:51.184Z,4.10
2018-07-17T17:15:20.280Z,4.57
2018-07-17T17:17:49.420Z,12.00
2018-07-17T17:20:18.526Z,4.37
2018-07-17T17:22:47.894Z,2.67
2018-07-17T17:25:17.367Z,11.35
2018-07-17T17:27:46.454Z,4.43
2018-07-17T17:30:15.556Z,3.90
2018-07-17T17:32:44.787Z,7.20
2018-07-17T17:35:14.362Z,7.33
2018-07-17T17:37:43.442Z,6.77
2018-07-17T17:40:12.542Z,6.60
2018-07-17T17:42:41.652Z,6.03
2018-07-17T17:45:10.744Z,8.33
2018-07-17T17:47:39.837Z,8.47
2018-07-17T17:50:09.136Z,4.97
2018-07-17T17:52:38.452Z,5.50
2018-07-17T17:55:07.628Z,5.47
2018-07-17T17:57:36.725Z,6.47
2018-07-17T18:00:06.146Z,4.60
2018-07-17T18:02:35.285Z,5.67
2018-07-17T18:05:04.644Z,6.80
2018-07-17T18:07:33.827Z,15.93
2018-07-17T18:10:03.105Z,3.87
2018-07-17T18:12:32.208Z,4.80
2018-07-17T18:15:01.308Z,5.93
2018-07-17T18:17:30.388Z,4.20
2018-07-17T18:19:59.704Z,7.30
2018-07-17T18:22:28.789Z,3.47
2018-07-17T18:24:57.900Z,6.70
2018-07-17T18:27:26.983Z,6.13
2018-07-17T18:29:56.089Z,4.77
2018-07-17T18:32:25.225Z,5.20
2018-07-17T18:34:54.384Z,3.43
2018-07-17T18:37:23.476Z,4.83
2018-07-17T18:39:52.582Z,2.63
2018-07-17T18:42:21.675Z,5.10
2018-07-17T18:44:50.774Z,2.87
2018-07-17T18:47:19.856Z,4.73
2018-07-17T18:49:59.755Z,4.00
2018-07-17T18:52:18.269Z,4.30
2018-07-17T18:54:47.559Z,4.00
2018-07-17T18:57:16.655Z,3.97
2018-07-17T18:59:46.152Z,4.53
2018-07-17T19:02:15.399Z,4.23
2018-07-17T19:04:44.481Z,4.20
2018-07-17T19:07:13.574Z,3.60
2018-07-17T19:09:42.659Z,5.77
2018-07-17T19:12:11.814Z,3.27
2018-07-17T19:14:41.058Z,2.70
2018-07-17T19:17:10.153Z,3.10
2018-07-17T19:19:39.239Z,4.63
2018-07-17T19:22:08.391Z,7.33
2018-07-17T19:24:37.619Z,4.33
2018-07-17T19:27:06.839Z,11.63
2018-07-17T19:29:35.981Z,7.10
2018-07-17T19:32:05.067Z,5.70
2018-07-17T19:34:34.211Z,7.33
2018-07-17T19:37:03.299Z,3.13
2018-07-17T19:39:32.379Z,5.27
2018-07-17T19:42:01.495Z,4.07
2018-07-17T19:44:30.675Z,4.17
2018-07-17T19:46:59.821Z,4.53
2018-07-17T19:49:28.914Z,3.37
2018-07-17T19:51:58.021Z,11.20
2018-07-17T19:54:27.261Z,5.93
2018-07-17T19:56:56.387Z,2.93
2018-07-17T19:59:25.483Z,13.87
2018-07-17T20:01:54.543Z,3.37
2018-07-17T20:04:23.701Z,2.80
2018-07-17T20:06:52.879Z,5.07
2018-07-17T20:09:21.967Z,6.43
2018-07-17T20:11:51.061Z,9.07
2018-07-17T20:14:20.631Z,3.70
2018-07-17T20:16:49.877Z,4.90
2018-07-17T20:19:18.938Z,4.60
2018-07-17T20:21:48.080Z,4.67
2018-07-17T20:24:17.151Z,3.83
2018-07-17T20:26:46.264Z,5.50
2018-07-17T20:29:15.555Z,3.57
2018-07-17T20:31:44.632Z,4.73
2018-07-17T20:34:13.703Z,4.83
2018-07-17T20:36:42.796Z,5.00
2018-07-17T20:39:11.981Z,3.17
2018-07-17T20:41:41.704Z,3.23
2018-07-17T20:44:10.888Z,3.37
2018-07-17T20:46:40.049Z,4.73
2018-07-17T20:49:09.157Z,5.90
2018-07-17T20:51:38.257Z,4.40
2018-07-17T20:54:07.537Z,3.97
2018-07-17T20:56:36.644Z,3.50
2018-07-17T20:59:05.720Z,5.83
2018-07-17T21:01:34.850Z,5.37
2018-07-17T21:04:04.441Z,6.23
2018-07-17T21:06:33.527Z,5.17
2018-07-17T21:09:02.622Z,2.83
2018-07-17T21:11:31.732Z,2.27
2018-07-17T21:14:00.800Z,5.50
2018-07-17T21:16:29.884Z,2.93
2018-07-17T21:18:59.442Z,4.27
2018-07-17T21:21:28.628Z,4.00
2018-07-17T21:23:57.710Z,5.03
2018-07-17T21:26:26.952Z,4.37
2018-07-17T21:28:56.416Z,6.40
2018-07-17T21:31:25.512Z,6.13
2018-07-17T21:33:54.722Z,5.20
2018-07-17T21:36:23.836Z,6.03
2018-07-17T21:38:52.932Z,6.77
2018-07-17T21:41:23.618Z,3.93
2018-07-17T21:43:52.674Z,3.13
2018-07-17T21:46:21.818Z,5.47
2018-07-17T21:48:51.318Z,9.53
2018-07-17T21:51:20.412Z,5.53
2018-07-17T21:53:49.486Z,5.60
2018-07-17T21:56:18.598Z,2.93
2018-07-17T21:58:47.696Z,7.60
2018-07-17T22:01:17.136Z,2.87
2018-07-17T22:03:46.200Z,11.13
2018-07-17T22:06:15.276Z,5.53
2018-07-17T22:08:44.406Z,5.43
2018-07-17T22:11:13.490Z,4.87
